sensor_id;sensor_type;location;lat;lon;timestamp;temperature;humidity
31733;DHT22;18312;51.486;7.144;2022-12-20T00:02:23;11.30;99.90
31733;DHT22;18312;51.486;7.144;2022-12-20T00:04:50;11.30;99.90
31733;DHT22;18312;51.486;7.144;2022-12-20T00:07:17;11.30;99.90
31733;DHT22;18312;51.486;7.144;2022-12-20T00:09:43;11.30;99.90
31733;DHT22;18312;51.486;7.144;2022-12-20T00:12:10;11.30;99.90
31733;DHT22;18312;51.486;7.144;2022-12-20T00:14:38;11.40;99.90
31733;DHT22;18312;51.486;7.144;2022-12-20T00:17:05;11.40;99.90
31733;DHT22;18312;51.486;7.144;2022-12-20T00:19:32;11.40;99.90
31733;DHT22;18312;51.486;7.144;2022-12-20T00:21:58;11.50;99.90
31733;DHT22;18312;51.486;7.144;2022-12-20T00:24:25;11.40;99.90
31733;DHT22;18312;51.486;7.144;2022-12-20T00:26:52;11.40;99.90
31733;DHT22;18312;51.486;7.144;2022-12-20T00:29:19;11.50;99.90
31733;DHT22;18312;51.486;7.144;2022-12-20T00:31:47;11.40;99.90
31733;DHT22;18312;51.486;7.144;2022-12-20T00:34:13;11.50;99.90
31733;DHT22;18312;51.486;7.144;2022-12-20T00:36:40;11.50;99.90
31733;DHT22;18312;51.486;7.144;2022-12-20T00:39:08;11.50;99.90
31733;DHT22;18312;51.486;7.144;2022-12-20T00:41:35;11.50;99.90
31733;DHT22;18312;51.486;7.144;2022-12-20T00:44:03;11.40;99.90
31733;DHT22;18312;51.486;7.144;2022-12-20T00:46:30;11.40;99.90
31733;DHT22;18312;51.486;7.144;2022-12-20T00:48:58;11.30;99.90
31733;DHT22;18312;51.486;7.144;2022-12-20T00:51:27;11.40;99.90
31733;DHT22;18312;51.486;7.144;2022-12-20T00:53:53;11.40;99.90
31733;DHT22;18312;51.486;7.144;2022-12-20T00:56:21;11.50;99.90
31733;DHT22;18312;51.486;7.144;2022-12-20T00:58:48;11.50;99.90
31733;DHT22;18312;51.486;7.144;2022-12-20T01:01:18;11.50;99.90
31733;DHT22;18312;51.486;7.144;2022-12-20T01:03:45;11.60;99.90
31733;DHT22;18312;51.486;7.144;2022-12-20T01:06:13;11.70;99.90
31733;DHT22;18312;51.486;7.144;2022-12-20T01:08:40;11.70;99.90
31733;DHT22;18312;51.486;7.144;2022-12-20T01:11:10;11.70;99.90
31733;DHT22;18312;51.486;7.144;2022-12-20T01:13:39;11.70;99.90
31733;DHT22;18312;51.486;7.144;2022-12-20T01:16:09;11.70;99.90
31733;DHT22;18312;51.486;7.144;2022-12-20T01:18:36;11.70;99.90
31733;DHT22;18312;51.486;7.144;2022-12-20T01:21:05;11.70;99.90
31733;DHT22;18312;51.486;7.144;2022-12-20T01:23:34;11.80;99.90
31733;DHT22;18312;51.486;7.144;2022-12-20T01:26:02;11.70;99.90
31733;DHT22;18312;51.486;7.144;2022-12-20T01:28:31;11.70;99.90
31733;DHT22;18312;51.486;7.144;2022-12-20T01:30:57;11.70;99.90
31733;DHT22;18312;51.486;7.144;2022-12-20T01:33:24;11.60;99.90
31733;DHT22;18312;51.486;7.144;2022-12-20T01:35:55;11.70;99.90
31733;DHT22;18312;51.486;7.144;2022-12-20T01:38:22;11.70;99.90
31733;DHT22;18312;51.486;7.144;2022-12-20T01:40:51;11.60;99.90
31733;DHT22;18312;51.486;7.144;2022-12-20T01:43:19;11.60;99.90
31733;DHT22;18312;51.486;7.144;2022-12-20T01:45:46;11.60;99.90
31733;DHT22;18312;51.486;7.144;2022-12-20T01:48:15;11.60;99.90
31733;DHT22;18312;51.486;7.144;2022-12-20T01:50:43;11.60;99.90
31733;DHT22;18312;51.486;7.144;2022-12-20T01:53:10;11.60;99.90
31733;DHT22;18312;51.486;7.144;2022-12-20T01:55:37;11.60;99.90
31733;DHT22;18312;51.486;7.144;2022-12-20T01:58:08;11.50;99.90
31733;DHT22;18312;51.486;7.144;2022-12-20T02:00:35;11.50;99.90
31733;DHT22;18312;51.486;7.144;2022-12-20T02:03:05;11.60;99.90
31733;DHT22;18312;51.486;7.144;2022-12-20T02:05:34;11.60;99.90
31733;DHT22;18312;51.486;7.144;2022-12-20T02:08:02;11.50;99.90
31733;DHT22;18312;51.486;7.144;2022-12-20T02:10:39;11.50;99.90
31733;DHT22;18312;51.486;7.144;2022-12-20T02:13:19;11.60;99.90
31733;DHT22;18312;51.486;7.144;2022-12-20T02:15:54;11.60;99.90
31733;DHT22;18312;51.486;7.144;2022-12-20T02:18:23;11.60;99.90
31733;DHT22;18312;51.486;7.144;2022-12-20T02:21:27;11.60;99.90
31733;DHT22;18312;51.486;7.144;2022-12-20T02:27:24;11.50;99.90
31733;DHT22;18312;51.486;7.144;2022-12-20T02:30:04;11.50;99.90
31733;DHT22;18312;51.486;7.144;2022-12-20T02:32:36;11.50;99.90
31733;DHT22;18312;51.486;7.144;2022-12-20T02:35:06;11.40;99.90
31733;DHT22;18312;51.486;7.144;2022-12-20T02:37:34;11.30;99.90
31733;DHT22;18312;51.486;7.144;2022-12-20T02:40:01;11.40;99.90
31733;DHT22;18312;51.486;7.144;2022-12-20T02:42:31;11.30;99.90
31733;DHT22;18312;51.486;7.144;2022-12-20T02:45:03;11.30;99.90
31733;DHT22;18312;51.486;7.144;2022-12-20T02:47:48;11.30;99.90
31733;DHT22;18312;51.486;7.144;2022-12-20T02:50:19;11.30;99.90
31733;DHT22;18312;51.486;7.144;2022-12-20T02:52:47;11.30;99.90
31733;DHT22;18312;51.486;7.144;2022-12-20T02:55:14;11.20;99.90
31733;DHT22;18312;51.486;7.144;2022-12-20T02:57:45;11.10;99.90
31733;DHT22;18312;51.486;7.144;2022-12-20T03:00:16;11.10;99.90
31733;DHT22;18312;51.486;7.144;2022-12-20T03:02:44;11.00;99.90
31733;DHT22;18312;51.486;7.144;2022-12-20T03:05:31;11.00;99.90
31733;DHT22;18312;51.486;7.144;2022-12-20T03:07:59;11.10;99.90
31733;DHT22;18312;51.486;7.144;2022-12-20T03:10:26;11.00;99.90
31733;DHT22;18312;51.486;7.144;2022-12-20T03:12:53;11.00;99.90
31733;DHT22;18312;51.486;7.144;2022-12-20T03:15:21;11.10;99.90
31733;DHT22;18312;51.486;7.144;2022-12-20T03:17:48;11.10;99.90
31733;DHT22;18312;51.486;7.144;2022-12-20T03:20:15;11.00;99.90
31733;DHT22;18312;51.486;7.144;2022-12-20T03:22:42;10.90;99.90
31733;DHT22;18312;51.486;7.144;2022-12-20T03:25:09;10.80;99.90
31733;DHT22;18312;51.486;7.144;2022-12-20T03:27:36;10.70;99.90
31733;DHT22;18312;51.486;7.144;2022-12-20T03:30:04;10.70;99.90
31733;DHT22;18312;51.486;7.144;2022-12-20T03:32:33;10.60;99.90
31733;DHT22;18312;51.486;7.144;2022-12-20T03:34:59;10.50;99.90
31733;DHT22;18312;51.486;7.144;2022-12-20T03:37:26;10.50;99.90
31733;DHT22;18312;51.486;7.144;2022-12-20T03:39:54;10.50;99.90
31733;DHT22;18312;51.486;7.144;2022-12-20T03:42:20;10.40;99.90
31733;DHT22;18312;51.486;7.144;2022-12-20T03:44:47;10.40;99.90
31733;DHT22;18312;51.486;7.144;2022-12-20T03:47:14;10.40;99.90
31733;DHT22;18312;51.486;7.144;2022-12-20T03:49:42;10.40;99.90
31733;DHT22;18312;51.486;7.144;2022-12-20T03:52:10;10.40;99.90
31733;DHT22;18312;51.486;7.144;2022-12-20T03:54:37;10.40;99.90
31733;DHT22;18312;51.486;7.144;2022-12-20T03:57:04;10.30;99.90
31733;DHT22;18312;51.486;7.144;2022-12-20T03:59:32;10.40;99.90
31733;DHT22;18312;51.486;7.144;2022-12-20T04:02:00;10.40;99.90
31733;DHT22;18312;51.486;7.144;2022-12-20T04:04:27;10.40;99.90
31733;DHT22;18312;51.486;7.144;2022-12-20T04:06:57;10.40;99.90
31733;DHT22;18312;51.486;7.144;2022-12-20T04:09:24;10.40;99.90
31733;DHT22;18312;51.486;7.144;2022-12-20T04:11:51;10.40;99.90
31733;DHT22;18312;51.486;7.144;2022-12-20T04:14:18;10.40;99.90
31733;DHT22;18312;51.486;7.144;2022-12-20T04:16:45;10.40;99.90
31733;DHT22;18312;51.486;7.144;2022-12-20T04:19:11;10.20;99.90
31733;DHT22;18312;51.486;7.144;2022-12-20T04:21:38;10.20;99.90
31733;DHT22;18312;51.486;7.144;2022-12-20T04:24:08;10.20;99.90
31733;DHT22;18312;51.486;7.144;2022-12-20T04:26:45;10.10;99.90
31733;DHT22;18312;51.486;7.144;2022-12-20T04:29:13;10.10;99.90
31733;DHT22;18312;51.486;7.144;2022-12-20T04:31:45;10.10;99.90
31733;DHT22;18312;51.486;7.144;2022-12-20T04:34:17;10.10;99.90
31733;DHT22;18312;51.486;7.144;2022-12-20T04:36:44;10.20;99.90
31733;DHT22;18312;51.486;7.144;2022-12-20T04:39:19;10.20;99.90
31733;DHT22;18312;51.486;7.144;2022-12-20T04:41:52;10.30;99.90
31733;DHT22;18312;51.486;7.144;2022-12-20T04:44:21;10.30;99.90
31733;DHT22;18312;51.486;7.144;2022-12-20T04:46:48;10.30;99.90
31733;DHT22;18312;51.486;7.144;2022-12-20T04:49:17;10.20;99.90
31733;DHT22;18312;51.486;7.144;2022-12-20T04:51:44;10.30;99.90
31733;DHT22;18312;51.486;7.144;2022-12-20T04:54:12;10.30;99.90
31733;DHT22;18312;51.486;7.144;2022-12-20T04:56:41;10.20;99.90
31733;DHT22;18312;51.486;7.144;2022-12-20T04:59:08;10.20;99.90
31733;DHT22;18312;51.486;7.144;2022-12-20T05:01:38;10.10;99.90
31733;DHT22;18312;51.486;7.144;2022-12-20T05:04:05;10.10;99.90
31733;DHT22;18312;51.486;7.144;2022-12-20T05:06:32;10.10;99.90
31733;DHT22;18312;51.486;7.144;2022-12-20T05:08:59;10.00;99.90
31733;DHT22;18312;51.486;7.144;2022-12-20T05:11:31;10.10;99.90
31733;DHT22;18312;51.486;7.144;2022-12-20T05:13:58;10.10;99.90
31733;DHT22;18312;51.486;7.144;2022-12-20T05:16:25;10.10;99.90
31733;DHT22;18312;51.486;7.144;2022-12-20T05:18:54;10.10;99.90
31733;DHT22;18312;51.486;7.144;2022-12-20T05:21:24;10.10;99.90
31733;DHT22;18312;51.486;7.144;2022-12-20T05:24:11;10.10;99.90
31733;DHT22;18312;51.486;7.144;2022-12-20T05:27:04;10.10;99.90
31733;DHT22;18312;51.486;7.144;2022-12-20T05:29:34;10.00;99.90
31733;DHT22;18312;51.486;7.144;2022-12-20T05:32:04;10.00;99.90
31733;DHT22;18312;51.486;7.144;2022-12-20T05:34:40;10.00;99.90
31733;DHT22;18312;51.486;7.144;2022-12-20T05:37:10;10.00;99.90
31733;DHT22;18312;51.486;7.144;2022-12-20T05:39:49;10.00;99.90
31733;DHT22;18312;51.486;7.144;2022-12-20T05:42:17;10.00;99.90
31733;DHT22;18312;51.486;7.144;2022-12-20T05:44:45;10.00;99.90
31733;DHT22;18312;51.486;7.144;2022-12-20T05:47:12;10.00;99.90
31733;DHT22;18312;51.486;7.144;2022-12-20T05:49:39;10.10;99.90
31733;DHT22;18312;51.486;7.144;2022-12-20T05:52:09;10.10;99.90
31733;DHT22;18312;51.486;7.144;2022-12-20T05:54:36;10.20;99.90
31733;DHT22;18312;51.486;7.144;2022-12-20T05:57:06;10.20;99.90
31733;DHT22;18312;51.486;7.144;2022-12-20T05:59:39;10.10;99.90
31733;DHT22;18312;51.486;7.144;2022-12-20T06:02:06;10.10;99.90
31733;DHT22;18312;51.486;7.144;2022-12-20T06:04:35;10.20;99.90
31733;DHT22;18312;51.486;7.144;2022-12-20T06:07:02;10.20;99.90
31733;DHT22;18312;51.486;7.144;2022-12-20T06:09:30;10.20;99.90
31733;DHT22;18312;51.486;7.144;2022-12-20T06:11:58;10.30;99.90
31733;DHT22;18312;51.486;7.144;2022-12-20T06:14:26;10.30;99.90
31733;DHT22;18312;51.486;7.144;2022-12-20T06:17:02;10.30;99.90
31733;DHT22;18312;51.486;7.144;2022-12-20T06:19:36;10.30;99.90
31733;DHT22;18312;51.486;7.144;2022-12-20T06:22:04;10.40;99.90
31733;DHT22;18312;51.486;7.144;2022-12-20T06:24:31;10.40;99.90
31733;DHT22;18312;51.486;7.144;2022-12-20T06:26:58;10.40;99.90
31733;DHT22;18312;51.486;7.144;2022-12-20T06:29:25;10.50;99.90
31733;DHT22;18312;51.486;7.144;2022-12-20T06:31:54;10.50;99.90
31733;DHT22;18312;51.486;7.144;2022-12-20T06:34:29;10.50;99.90
31733;DHT22;18312;51.486;7.144;2022-12-20T06:36:57;10.60;99.90
31733;DHT22;18312;51.486;7.144;2022-12-20T06:39:24;10.70;99.90
31733;DHT22;18312;51.486;7.144;2022-12-20T06:41:52;10.70;99.90
31733;DHT22;18312;51.486;7.144;2022-12-20T06:44:21;10.70;99.90
31733;DHT22;18312;51.486;7.144;2022-12-20T06:47:16;10.70;99.90
31733;DHT22;18312;51.486;7.144;2022-12-20T06:49:49;10.70;99.90
31733;DHT22;18312;51.486;7.144;2022-12-20T06:52:18;10.70;99.90
31733;DHT22;18312;51.486;7.144;2022-12-20T06:54:51;10.70;99.90
31733;DHT22;18312;51.486;7.144;2022-12-20T06:57:45;10.70;99.90
31733;DHT22;18312;51.486;7.144;2022-12-20T07:00:37;10.80;99.90
31733;DHT22;18312;51.486;7.144;2022-12-20T07:03:11;10.70;99.90
31733;DHT22;18312;51.486;7.144;2022-12-20T07:05:38;10.70;99.90
31733;DHT22;18312;51.486;7.144;2022-12-20T07:08:06;10.80;99.90
31733;DHT22;18312;51.486;7.144;2022-12-20T07:10:37;10.90;99.90
31733;DHT22;18312;51.486;7.144;2022-12-20T07:13:04;10.90;99.90
31733;DHT22;18312;51.486;7.144;2022-12-20T07:15:34;10.90;99.90
31733;DHT22;18312;51.486;7.144;2022-12-20T07:18:06;10.90;99.90
31733;DHT22;18312;51.486;7.144;2022-12-20T07:20:37;10.90;99.90
31733;DHT22;18312;51.486;7.144;2022-12-20T07:23:08;11.00;99.90
31733;DHT22;18312;51.486;7.144;2022-12-20T07:25:35;11.00;99.90
31733;DHT22;18312;51.486;7.144;2022-12-20T07:28:04;11.00;99.90
31733;DHT22;18312;51.486;7.144;2022-12-20T07:30:49;11.00;99.90
31733;DHT22;18312;51.486;7.144;2022-12-20T07:33:19;11.00;99.90
31733;DHT22;18312;51.486;7.144;2022-12-20T07:35:48;11.00;99.90
31733;DHT22;18312;51.486;7.144;2022-12-20T07:38:15;11.00;99.90
31733;DHT22;18312;51.486;7.144;2022-12-20T07:40:42;11.00;99.90
31733;DHT22;18312;51.486;7.144;2022-12-20T07:43:23;11.00;99.90
31733;DHT22;18312;51.486;7.144;2022-12-20T07:46:00;11.00;99.90
31733;DHT22;18312;51.486;7.144;2022-12-20T07:48:33;11.00;99.90
31733;DHT22;18312;51.486;7.144;2022-12-20T07:51:08;11.00;99.90
31733;DHT22;18312;51.486;7.144;2022-12-20T07:53:49;11.10;99.90
31733;DHT22;18312;51.486;7.144;2022-12-20T07:56:31;11.10;99.90
31733;DHT22;18312;51.486;7.144;2022-12-20T07:59:02;11.10;99.90
31733;DHT22;18312;51.486;7.144;2022-12-20T08:01:44;11.20;99.90
31733;DHT22;18312;51.486;7.144;2022-12-20T08:04:15;11.20;99.90
31733;DHT22;18312;51.486;7.144;2022-12-20T08:06:51;11.10;99.90
31733;DHT22;18312;51.486;7.144;2022-12-20T08:09:20;11.20;99.90
31733;DHT22;18312;51.486;7.144;2022-12-20T08:11:49;11.20;99.90
31733;DHT22;18312;51.486;7.144;2022-12-20T08:14:17;11.20;99.90
31733;DHT22;18312;51.486;7.144;2022-12-20T08:16:44;11.20;99.90
31733;DHT22;18312;51.486;7.144;2022-12-20T08:19:12;11.20;99.90
31733;DHT22;18312;51.486;7.144;2022-12-20T08:21:38;11.20;99.90
31733;DHT22;18312;51.486;7.144;2022-12-20T08:24:07;11.30;99.90
31733;DHT22;18312;51.486;7.144;2022-12-20T08:26:36;11.40;99.90
31733;DHT22;18312;51.486;7.144;2022-12-20T08:29:03;11.40;99.90
31733;DHT22;18312;51.486;7.144;2022-12-20T08:31:30;11.40;99.90
31733;DHT22;18312;51.486;7.144;2022-12-20T08:33:57;11.40;99.90
31733;DHT22;18312;51.486;7.144;2022-12-20T08:36:24;11.50;99.90
31733;DHT22;18312;51.486;7.144;2022-12-20T08:38:50;11.40;99.90
31733;DHT22;18312;51.486;7.144;2022-12-20T08:41:20;11.50;99.90
31733;DHT22;18312;51.486;7.144;2022-12-20T08:43:47;11.50;99.90
31733;DHT22;18312;51.486;7.144;2022-12-20T08:46:14;11.60;99.90
31733;DHT22;18312;51.486;7.144;2022-12-20T08:48:41;11.60;99.90
31733;DHT22;18312;51.486;7.144;2022-12-20T08:51:10;11.60;99.90
31733;DHT22;18312;51.486;7.144;2022-12-20T08:53:38;11.60;99.90
31733;DHT22;18312;51.486;7.144;2022-12-20T08:56:06;11.60;99.90
31733;DHT22;18312;51.486;7.144;2022-12-20T08:58:36;11.70;99.90
31733;DHT22;18312;51.486;7.144;2022-12-20T09:01:04;11.70;99.90
31733;DHT22;18312;51.486;7.144;2022-12-20T09:03:37;11.80;99.90
31733;DHT22;18312;51.486;7.144;2022-12-20T09:06:06;11.80;99.90
31733;DHT22;18312;51.486;7.144;2022-12-20T09:08:33;11.80;99.90
31733;DHT22;18312;51.486;7.144;2022-12-20T09:11:03;11.80;99.90
31733;DHT22;18312;51.486;7.144;2022-12-20T09:13:30;11.80;99.90
31733;DHT22;18312;51.486;7.144;2022-12-20T09:16:00;11.80;99.90
31733;DHT22;18312;51.486;7.144;2022-12-20T09:18:27;11.90;99.90
31733;DHT22;18312;51.486;7.144;2022-12-20T09:20:54;11.90;99.90
31733;DHT22;18312;51.486;7.144;2022-12-20T09:23:20;12.00;99.90
31733;DHT22;18312;51.486;7.144;2022-12-20T09:25:47;11.90;99.90
31733;DHT22;18312;51.486;7.144;2022-12-20T09:28:15;12.00;99.90
31733;DHT22;18312;51.486;7.144;2022-12-20T09:30:42;12.00;99.90
31733;DHT22;18312;51.486;7.144;2022-12-20T09:33:10;12.00;99.90
31733;DHT22;18312;51.486;7.144;2022-12-20T09:35:43;12.00;99.90
31733;DHT22;18312;51.486;7.144;2022-12-20T09:38:10;12.10;99.90
31733;DHT22;18312;51.486;7.144;2022-12-20T09:40:37;12.10;99.90
31733;DHT22;18312;51.486;7.144;2022-12-20T09:43:08;12.00;99.90
31733;DHT22;18312;51.486;7.144;2022-12-20T09:45:36;11.90;99.90
31733;DHT22;18312;51.486;7.144;2022-12-20T09:48:03;12.00;99.90
31733;DHT22;18312;51.486;7.144;2022-12-20T09:50:41;12.00;99.90
31733;DHT22;18312;51.486;7.144;2022-12-20T09:53:18;11.90;99.90
31733;DHT22;18312;51.486;7.144;2022-12-20T09:55:54;11.80;99.90
31733;DHT22;18312;51.486;7.144;2022-12-20T09:58:35;11.80;99.90
31733;DHT22;18312;51.486;7.144;2022-12-20T10:01:14;11.70;99.90
31733;DHT22;18312;51.486;7.144;2022-12-20T10:03:41;11.80;99.90
31733;DHT22;18312;51.486;7.144;2022-12-20T10:06:15;11.80;99.90
31733;DHT22;18312;51.486;7.144;2022-12-20T10:08:50;11.90;99.90
31733;DHT22;18312;51.486;7.144;2022-12-20T10:14:23;11.90;99.90
31733;DHT22;18312;51.486;7.144;2022-12-20T10:16:55;11.90;99.90
31733;DHT22;18312;51.486;7.144;2022-12-20T10:19:39;12.00;99.90
31733;DHT22;18312;51.486;7.144;2022-12-20T10:22:21;12.00;99.90
31733;DHT22;18312;51.486;7.144;2022-12-20T10:25:00;12.00;99.90
31733;DHT22;18312;51.486;7.144;2022-12-20T10:27:27;12.00;99.90
31733;DHT22;18312;51.486;7.144;2022-12-20T10:29:54;12.00;99.90
31733;DHT22;18312;51.486;7.144;2022-12-20T10:32:22;12.00;99.90
31733;DHT22;18312;51.486;7.144;2022-12-20T10:34:53;12.00;99.90
31733;DHT22;18312;51.486;7.144;2022-12-20T10:37:22;12.10;99.90
31733;DHT22;18312;51.486;7.144;2022-12-20T10:39:51;12.10;99.90
31733;DHT22;18312;51.486;7.144;2022-12-20T10:42:25;12.10;99.90
31733;DHT22;18312;51.486;7.144;2022-12-20T10:44:52;12.10;99.90
31733;DHT22;18312;51.486;7.144;2022-12-20T10:47:34;12.10;99.90
31733;DHT22;18312;51.486;7.144;2022-12-20T10:50:23;12.20;99.90
31733;DHT22;18312;51.486;7.144;2022-12-20T10:53:15;12.30;99.90
31733;DHT22;18312;51.486;7.144;2022-12-20T10:55:43;12.30;99.90
31733;DHT22;18312;51.486;7.144;2022-12-20T10:58:14;12.40;99.90
31733;DHT22;18312;51.486;7.144;2022-12-20T11:00:41;12.50;99.90
31733;DHT22;18312;51.486;7.144;2022-12-20T11:03:14;12.50;99.90
31733;DHT22;18312;51.486;7.144;2022-12-20T11:05:52;12.50;99.90
31733;DHT22;18312;51.486;7.144;2022-12-20T11:08:22;12.60;99.90
31733;DHT22;18312;51.486;7.144;2022-12-20T11:10:54;12.60;99.90
31733;DHT22;18312;51.486;7.144;2022-12-20T11:13:36;12.60;99.90
31733;DHT22;18312;51.486;7.144;2022-12-20T11:16:03;12.60;99.90
31733;DHT22;18312;51.486;7.144;2022-12-20T11:18:39;12.70;99.90
31733;DHT22;18312;51.486;7.144;2022-12-20T11:21:16;12.70;99.90
31733;DHT22;18312;51.486;7.144;2022-12-20T11:23:55;12.70;99.90
31733;DHT22;18312;51.486;7.144;2022-12-20T11:26:34;12.70;99.90
31733;DHT22;18312;51.486;7.144;2022-12-20T11:29:16;12.80;99.90
31733;DHT22;18312;51.486;7.144;2022-12-20T11:31:51;12.80;99.90
31733;DHT22;18312;51.486;7.144;2022-12-20T11:34:29;12.90;99.90
31733;DHT22;18312;51.486;7.144;2022-12-20T11:37:08;12.90;99.90
31733;DHT22;18312;51.486;7.144;2022-12-20T11:40:11;12.90;99.90
31733;DHT22;18312;51.486;7.144;2022-12-20T11:42:51;12.80;99.90
31733;DHT22;18312;51.486;7.144;2022-12-20T11:45:24;12.70;99.90
31733;DHT22;18312;51.486;7.144;2022-12-20T11:51:03;12.50;99.90
31733;DHT22;18312;51.486;7.144;2022-12-20T11:53:36;12.60;99.90
31733;DHT22;18312;51.486;7.144;2022-12-20T11:56:09;12.60;99.90
31733;DHT22;18312;51.486;7.144;2022-12-20T11:58:49;12.60;99.90
31733;DHT22;18312;51.486;7.144;2022-12-20T12:01:19;12.60;99.90
31733;DHT22;18312;51.486;7.144;2022-12-20T12:03:58;12.60;99.90
31733;DHT22;18312;51.486;7.144;2022-12-20T12:06:42;12.60;99.90
31733;DHT22;18312;51.486;7.144;2022-12-20T12:09:17;12.60;99.90
31733;DHT22;18312;51.486;7.144;2022-12-20T12:12:02;12.60;99.90
31733;DHT22;18312;51.486;7.144;2022-12-20T12:14:49;12.70;99.90
31733;DHT22;18312;51.486;7.144;2022-12-20T12:17:24;12.60;99.90
31733;DHT22;18312;51.486;7.144;2022-12-20T12:19:55;12.60;99.90
31733;DHT22;18312;51.486;7.144;2022-12-20T12:22:32;12.60;99.90
31733;DHT22;18312;51.486;7.144;2022-12-20T12:25:04;12.60;99.90
31733;DHT22;18312;51.486;7.144;2022-12-20T12:27:42;12.60;99.90
31733;DHT22;18312;51.486;7.144;2022-12-20T12:30:13;12.60;99.90
31733;DHT22;18312;51.486;7.144;2022-12-20T12:32:43;12.60;99.90
31733;DHT22;18312;51.486;7.144;2022-12-20T12:35:29;12.60;99.90
31733;DHT22;18312;51.486;7.144;2022-12-20T12:38:25;12.60;99.90
31733;DHT22;18312;51.486;7.144;2022-12-20T12:41:15;12.70;99.90
31733;DHT22;18312;51.486;7.144;2022-12-20T12:43:52;12.70;99.90
31733;DHT22;18312;51.486;7.144;2022-12-20T12:46:24;12.70;99.90
31733;DHT22;18312;51.486;7.144;2022-12-20T12:48:57;12.80;99.90
31733;DHT22;18312;51.486;7.144;2022-12-20T12:51:28;12.70;99.90
31733;DHT22;18312;51.486;7.144;2022-12-20T12:54:03;12.70;99.90
31733;DHT22;18312;51.486;7.144;2022-12-20T12:56:40;12.80;99.90
31733;DHT22;18312;51.486;7.144;2022-12-20T13:02:21;12.90;99.90
31733;DHT22;18312;51.486;7.144;2022-12-20T13:04:55;12.90;99.90
31733;DHT22;18312;51.486;7.144;2022-12-20T13:07:27;13.00;99.90
31733;DHT22;18312;51.486;7.144;2022-12-20T13:09:56;13.00;99.90
31733;DHT22;18312;51.486;7.144;2022-12-20T13:19:10;12.50;99.90
31733;DHT22;18312;51.486;7.144;2022-12-20T13:21:39;12.30;99.90
31733;DHT22;18312;51.486;7.144;2022-12-20T13:24:49;12.00;99.90
31733;DHT22;18312;51.486;7.144;2022-12-20T13:27:26;11.80;99.90
31733;DHT22;18312;51.486;7.144;2022-12-20T13:30:00;11.50;99.90
31733;DHT22;18312;51.486;7.144;2022-12-20T13:32:53;11.30;99.90
31733;DHT22;18312;51.486;7.144;2022-12-20T13:35:31;11.20;99.90
31733;DHT22;18312;51.486;7.144;2022-12-20T13:37:59;11.10;99.90
31733;DHT22;18312;51.486;7.144;2022-12-20T13:40:42;11.10;99.90
31733;DHT22;18312;51.486;7.144;2022-12-20T13:43:24;11.10;99.90
31733;DHT22;18312;51.486;7.144;2022-12-20T13:46:12;11.00;99.90
31733;DHT22;18312;51.486;7.144;2022-12-20T13:48:49;10.90;99.90
31733;DHT22;18312;51.486;7.144;2022-12-20T13:51:23;11.00;99.90
31733;DHT22;18312;51.486;7.144;2022-12-20T13:53:55;10.90;99.90
31733;DHT22;18312;51.486;7.144;2022-12-20T13:56:41;10.90;99.90
31733;DHT22;18312;51.486;7.144;2022-12-20T13:59:14;10.90;99.90
31733;DHT22;18312;51.486;7.144;2022-12-20T14:01:49;10.90;99.90
31733;DHT22;18312;51.486;7.144;2022-12-20T14:04:17;10.90;99.90
31733;DHT22;18312;51.486;7.144;2022-12-20T14:06:50;10.80;99.90
31733;DHT22;18312;51.486;7.144;2022-12-20T14:09:29;10.80;99.90
31733;DHT22;18312;51.486;7.144;2022-12-20T14:12:02;10.70;99.90
31733;DHT22;18312;51.486;7.144;2022-12-20T14:14:29;10.70;99.90
31733;DHT22;18312;51.486;7.144;2022-12-20T14:17:15;10.70;99.90
31733;DHT22;18312;51.486;7.144;2022-12-20T14:19:42;10.60;99.90
31733;DHT22;18312;51.486;7.144;2022-12-20T14:22:10;10.60;99.90
31733;DHT22;18312;51.486;7.144;2022-12-20T14:24:38;10.50;99.90
31733;DHT22;18312;51.486;7.144;2022-12-20T14:27:11;10.50;99.90
31733;DHT22;18312;51.486;7.144;2022-12-20T14:29:39;10.40;99.90
31733;DHT22;18312;51.486;7.144;2022-12-20T14:32:16;10.40;99.90
31733;DHT22;18312;51.486;7.144;2022-12-20T14:34:44;10.40;99.90
31733;DHT22;18312;51.486;7.144;2022-12-20T14:37:35;10.40;99.90
31733;DHT22;18312;51.486;7.144;2022-12-20T14:40:16;10.40;99.90
31733;DHT22;18312;51.486;7.144;2022-12-20T14:42:44;10.40;99.90
31733;DHT22;18312;51.486;7.144;2022-12-20T14:45:17;10.40;99.90
31733;DHT22;18312;51.486;7.144;2022-12-20T14:47:49;10.40;99.90
31733;DHT22;18312;51.486;7.144;2022-12-20T14:50:18;10.40;99.90
31733;DHT22;18312;51.486;7.144;2022-12-20T14:52:49;10.40;99.90
31733;DHT22;18312;51.486;7.144;2022-12-20T14:55:18;10.40;99.90
31733;DHT22;18312;51.486;7.144;2022-12-20T14:57:48;10.40;99.90
31733;DHT22;18312;51.486;7.144;2022-12-20T15:00:21;10.30;99.90
31733;DHT22;18312;51.486;7.144;2022-12-20T15:02:58;10.30;99.90
31733;DHT22;18312;51.486;7.144;2022-12-20T15:05:36;10.30;99.90
31733;DHT22;18312;51.486;7.144;2022-12-20T15:08:12;10.30;99.90
31733;DHT22;18312;51.486;7.144;2022-12-20T15:10:58;10.20;99.90
31733;DHT22;18312;51.486;7.144;2022-12-20T15:13:30;10.30;99.90
31733;DHT22;18312;51.486;7.144;2022-12-20T15:16:02;10.20;99.90
31733;DHT22;18312;51.486;7.144;2022-12-20T15:18:30;10.20;99.90
31733;DHT22;18312;51.486;7.144;2022-12-20T15:21:03;10.30;99.90
31733;DHT22;18312;51.486;7.144;2022-12-20T15:23:32;10.20;99.90
31733;DHT22;18312;51.486;7.144;2022-12-20T15:26:03;10.10;99.90
31733;DHT22;18312;51.486;7.144;2022-12-20T15:28:35;10.20;99.90
31733;DHT22;18312;51.486;7.144;2022-12-20T15:31:03;10.20;99.90
31733;DHT22;18312;51.486;7.144;2022-12-20T15:33:31;10.10;99.90
31733;DHT22;18312;51.486;7.144;2022-12-20T15:36:00;10.10;99.90
31733;DHT22;18312;51.486;7.144;2022-12-20T15:38:27;10.10;99.90
31733;DHT22;18312;51.486;7.144;2022-12-20T15:41:04;10.10;99.90
31733;DHT22;18312;51.486;7.144;2022-12-20T15:43:37;10.20;99.90
31733;DHT22;18312;51.486;7.144;2022-12-20T15:46:05;10.10;99.90
31733;DHT22;18312;51.486;7.144;2022-12-20T15:48:31;10.10;99.90
31733;DHT22;18312;51.486;7.144;2022-12-20T15:50:59;10.10;99.90
31733;DHT22;18312;51.486;7.144;2022-12-20T15:53:30;10.10;99.90
31733;DHT22;18312;51.486;7.144;2022-12-20T15:55:59;10.10;99.90
31733;DHT22;18312;51.486;7.144;2022-12-20T15:58:29;10.10;99.90
31733;DHT22;18312;51.486;7.144;2022-12-20T16:00:57;10.10;99.90
31733;DHT22;18312;51.486;7.144;2022-12-20T16:03:30;10.10;99.90
31733;DHT22;18312;51.486;7.144;2022-12-20T16:05:57;10.00;99.90
31733;DHT22;18312;51.486;7.144;2022-12-20T16:08:24;10.00;99.90
31733;DHT22;18312;51.486;7.144;2022-12-20T16:10:51;10.00;99.90
31733;DHT22;18312;51.486;7.144;2022-12-20T16:13:22;10.00;99.90
31733;DHT22;18312;51.486;7.144;2022-12-20T16:15:49;10.00;99.90
31733;DHT22;18312;51.486;7.144;2022-12-20T16:18:16;10.00;99.90